createdAt,value
2017-03-29T00:00:20.589Z,0
2017-03-29T00:01:02.577Z,0
2017-03-29T00:01:42.977Z,0
2017-03-29T00:02:23.430Z,0
2017-03-29T00:03:04.082Z,0
2017-03-29T00:03:45.986Z,0
2017-03-29T00:04:26.429Z,0
2017-03-29T00:05:06.792Z,0
2017-03-29T00:05:47.227Z,0
2017-03-29T00:06:27.658Z,0
2017-03-29T00:07:09.025Z,0
2017-03-29T00:07:49.466Z,0
2017-03-29T00:08:30.444Z,0
2017-03-29T00:09:10.868Z,0
2017-03-29T00:09:51.248Z,0
2017-03-29T00:10:32.601Z,0
2017-03-29T00:11:12.993Z,0
2017-03-29T00:11:53.604Z,0
2017-03-29T00:12:33.975Z,0
2017-03-29T00:13:14.400Z,0
2017-03-29T00:13:54.833Z,0
2017-03-29T00:14:35.285Z,0
2017-03-29T00:15:15.683Z,0
2017-03-29T00:15:57.141Z,0
2017-03-29T00:16:36.784Z,0
2017-03-29T00:17:17.261Z,0
2017-03-29T00:17:57.657Z,0
2017-03-29T00:18:41.854Z,0
2017-03-29T00:19:22.290Z,0
2017-03-29T00:20:04.035Z,0
2017-03-29T00:20:43.875Z,0
2017-03-29T00:21:25.252Z,0
2017-03-29T00:22:06.231Z,0
2017-03-29T00:22:46.684Z,0
2017-03-29T00:23:27.533Z,0
2017-03-29T00:24:07.990Z,0
2017-03-29T00:24:49.016Z,0
2017-03-29T00:25:29.400Z,0
2017-03-29T00:26:09.871Z,0
2017-03-29T00:26:51.491Z,0
2017-03-29T00:27:31.905Z,0
2017-03-29T00:28:12.765Z,0
2017-03-29T00:28:53.161Z,0
2017-03-29T00:29:34.175Z,0
2017-03-29T00:30:14.574Z,0
2017-03-29T00:30:55.004Z,0
2017-03-29T00:31:35.371Z,0
2017-03-29T00:32:15.824Z,0
2017-03-29T00:32:56.241Z,0
2017-03-29T00:33:36.605Z,0
2017-03-29T00:34:17.029Z,0
2017-03-29T00:34:57.494Z,0
2017-03-29T00:35:37.849Z,0
2017-03-29T00:36:18.291Z,0
2017-03-29T00:36:58.730Z,0
2017-03-29T00:37:39.130Z,0
2017-03-29T00:38:19.506Z,0
2017-03-29T00:38:59.941Z,0
2017-03-29T00:39:40.371Z,0
2017-03-29T00:40:20.790Z,0
2017-03-29T00:41:01.175Z,0
2017-03-29T00:41:41.622Z,0
2017-03-29T00:42:21.989Z,0
2017-03-29T00:43:02.420Z,0
2017-03-29T00:43:42.827Z,0
2017-03-29T00:44:23.276Z,0
2017-03-29T00:45:03.691Z,0
2017-03-29T00:45:44.110Z,0
2017-03-29T00:46:24.525Z,0
2017-03-29T00:47:04.980Z,0
2017-03-29T00:47:45.359Z,0
2017-03-29T00:48:25.752Z,0
2017-03-29T00:49:06.185Z,0
2017-03-29T00:49:46.580Z,0
2017-03-29T00:50:26.976Z,0
2017-03-29T00:51:07.439Z,0
2017-03-29T00:51:47.789Z,0
2017-03-29T00:52:28.243Z,0
2017-03-29T00:53:08.590Z,0
2017-03-29T00:53:49.040Z,0
2017-03-29T00:54:29.435Z,0
2017-03-29T00:55:09.818Z,0
2017-03-29T00:55:50.255Z,0
2017-03-29T00:56:30.679Z,0
2017-03-29T00:57:11.080Z,0
2017-03-29T00:57:51.533Z,0
2017-03-29T00:58:31.941Z,0
2017-03-29T00:59:12.322Z,0
2017-03-29T00:59:52.737Z,0
2017-03-29T01:00:33.144Z,0
2017-03-29T01:01:13.551Z,0
2017-03-29T01:01:54.004Z,0
2017-03-29T01:02:34.414Z,0
2017-03-29T01:03:14.776Z,0
2017-03-29T01:03:55.170Z,0
2017-03-29T01:04:35.593Z,0
2017-03-29T01:05:15.989Z,0
2017-03-29T01:05:56.436Z,0
2017-03-29T01:06:36.773Z,0
2017-03-29T01:07:17.230Z,0
2017-03-29T01:07:57.672Z,0
2017-03-29T01:08:38.088Z,0
2017-03-29T01:09:18.460Z,0
2017-03-29T01:09:58.866Z,0
2017-03-29T01:10:39.297Z,0
2017-03-29T01:11:19.676Z,0
2017-03-29T01:12:00.071Z,0
2017-03-29T01:12:40.555Z,0
2017-03-29T01:13:20.934Z,0
2017-03-29T01:14:01.373Z,0
2017-03-29T01:14:41.779Z,0
2017-03-29T01:15:22.214Z,0
2017-03-29T01:16:02.608Z,0
2017-03-29T01:16:42.989Z,0
2017-03-29T01:17:23.412Z,0
2017-03-29T01:18:03.813Z,0
2017-03-29T01:18:44.250Z,0
2017-03-29T01:19:24.620Z,0
2017-03-29T01:20:05.030Z,0
2017-03-29T01:20:45.459Z,0
2017-03-29T01:21:25.913Z,0
2017-03-29T01:22:06.283Z,0
2017-03-29T01:22:46.670Z,0
2017-03-29T01:23:27.066Z,0
2017-03-29T01:24:07.447Z,0
2017-03-29T01:24:47.852Z,0
2017-03-29T01:25:28.283Z,0
2017-03-29T01:26:08.673Z,0
2017-03-29T01:26:49.126Z,0
2017-03-29T01:27:29.504Z,0
2017-03-29T01:28:09.946Z,0
2017-03-29T01:28:50.365Z,0
2017-03-29T01:29:30.741Z,0
2017-03-29T01:30:11.123Z,0
2017-03-29T01:30:51.551Z,0
2017-03-29T01:31:31.906Z,0
2017-03-29T01:32:12.341Z,0
2017-03-29T01:32:52.752Z,0
2017-03-29T01:33:33.102Z,0
2017-03-29T01:34:13.628Z,0
2017-03-29T01:34:53.993Z,0
2017-03-29T01:35:34.498Z,0
2017-03-29T01:36:14.803Z,0
2017-03-29T01:36:55.237Z,0
2017-03-29T01:37:35.638Z,0
2017-03-29T01:38:16.076Z,0
2017-03-29T01:38:56.469Z,0
2017-03-29T01:39:36.896Z,0
2017-03-29T01:40:17.298Z,0
2017-03-29T01:40:57.713Z,0
2017-03-29T01:41:38.152Z,0
2017-03-29T01:42:18.521Z,0
2017-03-29T01:42:58.963Z,0
2017-03-29T01:43:39.413Z,0
2017-03-29T01:44:19.868Z,0
2017-03-29T01:45:00.429Z,0
2017-03-29T01:45:40.757Z,0
2017-03-29T01:46:21.186Z,0
2017-03-29T01:47:01.594Z,0
2017-03-29T01:47:41.999Z,0
2017-03-29T01:48:22.364Z,0
2017-03-29T01:49:02.791Z,0
2017-03-29T01:49:43.189Z,0
2017-03-29T01:50:23.624Z,0
2017-03-29T01:51:04.036Z,0
2017-03-29T01:51:44.380Z,0
2017-03-29T01:52:24.838Z,0
2017-03-29T01:53:05.233Z,0
2017-03-29T01:53:45.638Z,0
2017-03-29T01:54:26.013Z,0
2017-03-29T01:55:06.431Z,0
2017-03-29T01:55:46.864Z,0
2017-03-29T01:56:27.231Z,0
2017-03-29T01:57:07.626Z,0
2017-03-29T01:57:48.057Z,0
2017-03-29T01:58:28.465Z,0
2017-03-29T01:59:08.819Z,0
2017-03-29T01:59:49.280Z,0
2017-03-29T02:00:29.697Z,0
2017-03-29T02:01:10.127Z,0
2017-03-29T02:01:50.493Z,0
2017-03-29T02:02:30.931Z,0
2017-03-29T02:03:11.361Z,0
2017-03-29T02:03:51.731Z,0
2017-03-29T02:04:32.103Z,0
2017-03-29T02:05:12.540Z,0
2017-03-29T02:05:52.917Z,0
2017-03-29T02:06:33.401Z,0
2017-03-29T02:07:13.734Z,0
2017-03-29T02:07:54.152Z,0
2017-03-29T02:08:34.568Z,0
2017-03-29T02:09:14.985Z,0
2017-03-29T02:09:55.447Z,0
2017-03-29T02:10:35.779Z,0
2017-03-29T02:11:16.178Z,0
2017-03-29T02:11:56.599Z,0
2017-03-29T02:12:37.038Z,0
2017-03-29T02:13:17.414Z,0
2017-03-29T02:13:57.811Z,0
2017-03-29T02:14:38.209Z,0
2017-03-29T02:15:18.680Z,0
2017-03-29T02:15:59.089Z,0
2017-03-29T02:16:39.444Z,0
2017-03-29T02:17:19.869Z,0
2017-03-29T02:18:00.272Z,0
2017-03-29T02:18:40.680Z,0
2017-03-29T02:19:21.070Z,0
2017-03-29T02:20:01.473Z,0
2017-03-29T02:20:41.879Z,0
2017-03-29T02:21:22.254Z,0
2017-03-29T02:22:02.695Z,0
2017-03-29T02:22:43.085Z,0
2017-03-29T02:23:23.502Z,0
2017-03-29T02:24:03.914Z,0
2017-03-29T02:24:44.335Z,0
2017-03-29T02:25:24.778Z,0
2017-03-29T02:26:05.175Z,0
2017-03-29T02:26:45.637Z,0
2017-03-29T02:27:26.084Z,0
2017-03-29T02:28:06.482Z,0
2017-03-29T02:28:46.869Z,0
2017-03-29T02:29:27.319Z,0
2017-03-29T02:30:07.695Z,0
2017-03-29T02:30:48.143Z,0
2017-03-29T02:31:28.560Z,0
2017-03-29T02:32:08.931Z,0
2017-03-29T02:32:49.352Z,0
2017-03-29T02:33:29.781Z,0
2017-03-29T02:34:10.189Z,0
2017-03-29T02:34:50.582Z,0
2017-03-29T02:35:30.966Z,0
2017-03-29T02:36:11.313Z,0
2017-03-29T02:36:51.756Z,0
2017-03-29T02:37:32.139Z,0
2017-03-29T02:38:12.578Z,0
2017-03-29T02:38:52.979Z,0
2017-03-29T02:39:33.356Z,0
2017-03-29T02:40:13.792Z,0
2017-03-29T02:40:54.221Z,0
2017-03-29T02:41:34.627Z,0
2017-03-29T02:42:15.048Z,0
2017-03-29T02:42:55.455Z,0
2017-03-29T02:43:35.842Z,0
2017-03-29T02:44:16.259Z,0
2017-03-29T02:44:56.689Z,0
2017-03-29T02:45:37.090Z,0
2017-03-29T02:46:17.435Z,0
2017-03-29T02:46:57.870Z,0
2017-03-29T02:47:38.323Z,0
2017-03-29T02:48:18.676Z,0
2017-03-29T02:48:59.130Z,0
2017-03-29T02:49:39.544Z,0
2017-03-29T02:50:19.941Z,0
2017-03-29T02:51:00.332Z,0
2017-03-29T02:51:40.781Z,0
2017-03-29T02:52:21.236Z,0
2017-03-29T02:53:01.627Z,0
2017-03-29T02:53:42.088Z,0
2017-03-29T02:54:22.489Z,0
2017-03-29T02:55:02.870Z,0
2017-03-29T02:55:43.251Z,0
2017-03-29T02:56:23.736Z,0
2017-03-29T02:57:04.103Z,0
2017-03-29T02:57:44.529Z,0
2017-03-29T02:58:24.923Z,0
2017-03-29T02:59:05.329Z,0
2017-03-29T02:59:45.754Z,0
2017-03-29T03:00:26.131Z,0
2017-03-29T03:01:06.584Z,0
2017-03-29T03:01:46.995Z,0
2017-03-29T03:02:27.398Z,0
2017-03-29T03:03:07.868Z,0
2017-03-29T03:03:48.270Z,0
2017-03-29T03:04:28.689Z,0
2017-03-29T03:05:09.118Z,0
2017-03-29T03:05:49.500Z,0
2017-03-29T03:06:29.909Z,0
2017-03-29T03:07:10.338Z,0
2017-03-29T03:07:50.782Z,0
2017-03-29T03:08:31.199Z,0
2017-03-29T03:09:11.622Z,0
2017-03-29T03:09:52.049Z,0
2017-03-29T03:10:32.607Z,0
2017-03-29T03:11:12.987Z,0
2017-03-29T03:11:54.317Z,0
2017-03-29T03:12:34.739Z,0
2017-03-29T03:13:15.160Z,0
2017-03-29T03:13:55.582Z,0
2017-03-29T03:14:35.984Z,0
2017-03-29T03:15:16.472Z,0
2017-03-29T03:15:56.907Z,0
2017-03-29T03:16:37.341Z,0
2017-03-29T03:17:17.729Z,0
2017-03-29T03:17:58.134Z,0
2017-03-29T03:18:39.517Z,0
2017-03-29T03:19:19.894Z,0
2017-03-29T03:20:00.326Z,0
2017-03-29T03:20:40.694Z,0
2017-03-29T03:21:21.142Z,0
2017-03-29T03:22:02.267Z,0
2017-03-29T03:22:42.623Z,0
2017-03-29T03:23:23.036Z,0
2017-03-29T03:24:03.464Z,0
2017-03-29T03:24:43.834Z,0
2017-03-29T03:25:24.264Z,0
2017-03-29T03:26:04.694Z,0
2017-03-29T03:26:45.110Z,0
2017-03-29T03:27:25.534Z,0
2017-03-29T03:28:05.944Z,0
2017-03-29T03:28:46.361Z,0
2017-03-29T03:29:26.747Z,0
2017-03-29T03:30:07.123Z,0
2017-03-29T03:30:47.598Z,0
2017-03-29T03:31:27.975Z,0
2017-03-29T03:32:08.386Z,0
2017-03-29T03:32:48.780Z,0
2017-03-29T03:33:29.239Z,0
2017-03-29T03:34:09.651Z,0
2017-03-29T03:34:50.013Z,0
2017-03-29T03:37:26.687Z,0
2017-03-29T03:38:16.225Z,0
2017-03-29T03:41:18.799Z,0
2017-03-29T03:42:05.000Z,0
2017-03-29T03:46:35.621Z,0
2017-03-29T03:47:21.936Z,0
2017-03-29T03:48:10.155Z,0
2017-03-29T03:48:53.263Z,0
2017-03-29T03:49:33.425Z,0
2017-03-29T03:50:14.363Z,0
2017-03-29T03:50:54.789Z,0
2017-03-29T03:51:35.198Z,0
2017-03-29T03:53:53.032Z,0
2017-03-29T03:54:33.708Z,0
2017-03-29T03:55:14.168Z,0
2017-03-29T03:55:54.551Z,0
2017-03-29T03:56:34.992Z,0
2017-03-29T03:57:15.406Z,0
2017-03-29T03:57:55.885Z,0
2017-03-29T03:58:36.323Z,0
2017-03-29T03:59:16.714Z,0
2017-03-29T03:59:57.112Z,0
2017-03-29T04:00:37.520Z,0
2017-03-29T04:01:18.686Z,0
2017-03-29T04:01:59.070Z,0
2017-03-29T04:02:39.488Z,0
2017-03-29T04:03:19.899Z,0
2017-03-29T04:04:00.338Z,0
2017-03-29T04:04:40.725Z,0
2017-03-29T04:05:21.194Z,0
2017-03-29T04:06:01.542Z,0
2017-03-29T04:06:41.909Z,0
2017-03-29T04:07:22.352Z,0
2017-03-29T04:08:02.716Z,0
2017-03-29T04:08:43.188Z,0
2017-03-29T04:09:23.613Z,0
2017-03-29T04:10:04.027Z,0
2017-03-29T04:10:44.415Z,0
2017-03-29T04:11:24.905Z,0
2017-03-29T04:12:07.306Z,0
2017-03-29T04:12:47.685Z,0
2017-03-29T04:13:28.128Z,0
2017-03-29T04:14:08.562Z,0
2017-03-29T04:14:48.955Z,0
2017-03-29T04:15:29.388Z,0
2017-03-29T04:16:09.821Z,0
2017-03-29T04:16:50.270Z,0
2017-03-29T04:17:30.651Z,0
2017-03-29T04:18:11.078Z,0
2017-03-29T04:18:51.490Z,0
2017-03-29T04:19:31.852Z,0
2017-03-29T04:20:12.274Z,0
2017-03-29T04:20:52.669Z,0
2017-03-29T04:21:33.078Z,0
2017-03-29T04:22:13.576Z,0
2017-03-29T04:22:53.962Z,0
2017-03-29T04:23:34.369Z,0
2017-03-29T04:24:14.776Z,0
2017-03-29T04:24:55.226Z,0
2017-03-29T04:25:35.654Z,0
2017-03-29T04:26:16.960Z,0
2017-03-29T04:26:57.367Z,0
2017-03-29T04:27:37.801Z,0
2017-03-29T04:28:19.946Z,0
2017-03-29T04:29:00.334Z,0
2017-03-29T04:29:40.783Z,0
2017-03-29T04:30:21.232Z,0
2017-03-29T04:31:01.636Z,0
2017-03-29T04:31:42.013Z,0
2017-03-29T04:32:22.397Z,0
2017-03-29T04:33:02.827Z,0
2017-03-29T04:33:43.225Z,0
2017-03-29T04:34:23.651Z,0
2017-03-29T04:35:04.036Z,0
2017-03-29T04:35:44.452Z,0
2017-03-29T04:36:26.444Z,0
2017-03-29T04:37:06.910Z,0
2017-03-29T04:37:47.348Z,0
2017-03-29T04:38:27.742Z,0
2017-03-29T04:39:08.134Z,4
2017-03-29T04:39:48.568Z,4
2017-03-29T04:40:29.026Z,4
2017-03-29T04:41:09.427Z,4
2017-03-29T04:41:49.829Z,0
2017-03-29T04:42:30.227Z,4
2017-03-29T04:43:12.493Z,4
2017-03-29T04:43:53.045Z,8
2017-03-29T04:44:33.614Z,4
2017-03-29T04:45:16.081Z,8
2017-03-29T04:45:57.391Z,8
2017-03-29T04:46:37.833Z,8
2017-03-29T04:47:18.218Z,8
2017-03-29T04:47:58.642Z,12
2017-03-29T04:48:39.025Z,16
2017-03-29T04:49:19.461Z,16
2017-03-29T04:49:59.900Z,16
2017-03-29T04:50:40.325Z,20
2017-03-29T04:51:20.726Z,24
2017-03-29T04:52:01.115Z,24
2017-03-29T04:52:41.485Z,28
2017-03-29T04:53:21.964Z,28
2017-03-29T04:54:03.043Z,36
2017-03-29T04:54:43.466Z,40
2017-03-29T04:55:23.893Z,44
2017-03-29T04:56:04.348Z,48
2017-03-29T04:56:44.758Z,52
2017-03-29T04:57:25.215Z,60
2017-03-29T04:58:05.579Z,68
2017-03-29T04:58:45.981Z,76
2017-03-29T04:59:26.381Z,80
2017-03-29T05:00:07.036Z,88
2017-03-29T05:00:47.533Z,100
2017-03-29T05:01:27.972Z,108
2017-03-29T05:02:08.384Z,116
2017-03-29T05:02:48.736Z,128
2017-03-29T05:03:29.139Z,136
2017-03-29T05:04:09.582Z,148
2017-03-29T05:04:49.945Z,160
2017-03-29T05:05:30.420Z,176
2017-03-29T05:06:10.797Z,188
2017-03-29T05:06:51.264Z,200
2017-03-29T05:07:31.729Z,216
2017-03-29T05:08:12.120Z,228
2017-03-29T05:08:52.489Z,244
2017-03-29T05:09:32.961Z,260
2017-03-29T05:10:13.427Z,276
2017-03-29T05:10:54.497Z,296
2017-03-29T05:11:34.917Z,316
2017-03-29T05:13:39.359Z,372
2017-03-29T05:14:27.612Z,396
2017-03-29T05:15:12.917Z,420
2017-03-29T05:16:01.763Z,448
2017-03-29T05:16:50.033Z,472
2017-03-29T05:17:29.480Z,500
2017-03-29T05:18:09.895Z,528
2017-03-29T05:18:50.372Z,552
2017-03-29T05:19:30.809Z,580
2017-03-29T05:20:11.210Z,608
2017-03-29T05:20:51.635Z,636
2017-03-29T05:21:32.081Z,664
2017-03-29T05:22:12.471Z,696
2017-03-29T05:22:52.873Z,724
2017-03-29T05:23:33.292Z,756
2017-03-29T05:24:13.833Z,784
2017-03-29T05:24:54.156Z,816
2017-03-29T05:25:34.567Z,852
2017-03-29T05:26:15.798Z,884
2017-03-29T05:26:56.165Z,920
2017-03-29T05:27:37.230Z,956
2017-03-29T05:28:17.576Z,988
2017-03-29T05:28:57.994Z,1028
2017-03-29T05:29:38.367Z,1064
2017-03-29T05:30:18.911Z,1104
2017-03-29T05:31:00.716Z,1144
2017-03-29T05:31:41.140Z,1184
2017-03-29T05:32:21.509Z,1220
2017-03-29T05:33:01.951Z,1252
2017-03-29T05:33:42.343Z,1288
2017-03-29T05:34:22.796Z,1324
2017-03-29T05:35:03.212Z,1356
2017-03-29T05:35:43.628Z,1392
2017-03-29T05:36:24.034Z,1428
2017-03-29T05:37:04.438Z,1460
2017-03-29T05:37:44.875Z,1496
2017-03-29T05:38:25.235Z,1532
2017-03-29T05:39:05.748Z,1564
2017-03-29T05:39:46.182Z,1596
2017-03-29T05:40:26.567Z,1624
2017-03-29T05:41:07.063Z,1652
2017-03-29T05:41:47.402Z,1680
2017-03-29T05:42:27.848Z,1712
2017-03-29T05:43:08.261Z,1740
2017-03-29T05:43:48.610Z,1768
2017-03-29T05:44:29.031Z,1800
2017-03-29T05:45:10.071Z,1824
2017-03-29T05:45:51.078Z,1860
2017-03-29T05:46:31.472Z,1892
2017-03-29T05:47:11.915Z,1924
2017-03-29T05:47:52.298Z,1960
2017-03-29T05:48:32.683Z,1992
2017-03-29T05:49:13.115Z,2024
2017-03-29T05:49:53.560Z,2052
2017-03-29T05:50:33.977Z,2084
2017-03-29T05:51:14.375Z,2124
2017-03-29T05:51:54.772Z,2168
2017-03-29T05:52:35.171Z,2216
2017-03-29T05:53:15.619Z,2260
2017-03-29T05:53:56.052Z,2316
2017-03-29T05:54:36.468Z,2372
2017-03-29T05:55:16.920Z,2404
2017-03-29T05:55:57.273Z,2412
2017-03-29T05:56:37.687Z,2468
2017-03-29T05:57:18.137Z,2516
2017-03-29T05:57:58.504Z,2544
2017-03-29T05:58:38.897Z,2576
2017-03-29T05:59:19.289Z,2612
2017-03-29T05:59:59.729Z,2648
2017-03-29T06:00:40.122Z,2696
2017-03-29T06:01:20.558Z,2744
2017-03-29T06:02:00.973Z,2784
2017-03-29T06:02:41.352Z,2824
2017-03-29T06:03:21.777Z,2860
2017-03-29T06:04:02.169Z,2904
2017-03-29T06:04:42.555Z,2956
2017-03-29T06:05:22.965Z,3040
2017-03-29T06:06:03.395Z,3160
2017-03-29T06:06:43.829Z,3308
2017-03-29T06:07:24.251Z,3476
2017-03-29T06:08:04.649Z,3672
2017-03-29T06:08:45.077Z,3852
2017-03-29T06:09:25.510Z,4008
2017-03-29T06:10:06.022Z,4144
2017-03-29T06:10:46.394Z,4260
2017-03-29T06:11:26.840Z,4352
2017-03-29T06:12:07.224Z,4464
2017-03-29T06:12:47.673Z,4600
2017-03-29T06:13:28.093Z,4792
2017-03-29T06:14:08.502Z,5088
2017-03-29T06:14:48.961Z,5312
2017-03-29T06:15:29.362Z,5360
2017-03-29T06:16:09.781Z,5260
2017-03-29T06:16:50.222Z,5120
2017-03-29T06:17:31.233Z,5016
2017-03-29T06:18:11.680Z,4996
2017-03-29T06:18:52.079Z,4988
2017-03-29T06:19:32.499Z,5016
2017-03-29T06:20:12.928Z,5044
2017-03-29T06:20:53.343Z,5008
2017-03-29T06:21:33.735Z,4944
2017-03-29T06:22:14.114Z,4864
2017-03-29T06:22:54.516Z,4584
2017-03-29T06:23:34.960Z,4580
2017-03-29T06:24:15.345Z,4940
2017-03-29T06:24:55.725Z,4976
2017-03-29T06:25:36.173Z,5084
2017-03-29T06:26:16.572Z,5164
2017-03-29T06:26:57.019Z,5328
2017-03-29T06:27:37.441Z,5488
2017-03-29T06:28:17.813Z,5576
2017-03-29T06:28:58.204Z,5584
2017-03-29T06:29:39.328Z,5536
2017-03-29T06:30:19.773Z,5624
2017-03-29T06:31:00.158Z,5700
2017-03-29T06:31:40.607Z,5740
2017-03-29T06:32:21.000Z,5848
2017-03-29T06:33:01.458Z,6012
2017-03-29T06:33:41.860Z,6208
2017-03-29T06:34:22.262Z,6280
2017-03-29T06:35:02.705Z,6356
2017-03-29T06:35:43.162Z,6396
2017-03-29T06:36:23.560Z,6452
2017-03-29T06:37:03.965Z,6520
2017-03-29T06:37:44.383Z,6520
2017-03-29T06:38:24.769Z,6564
2017-03-29T06:39:05.149Z,6512
2017-03-29T06:39:45.573Z,6548
2017-03-29T06:40:25.970Z,6536
2017-03-29T06:41:06.412Z,6540
2017-03-29T06:41:46.772Z,6548
2017-03-29T06:42:27.289Z,6584
2017-03-29T06:43:07.661Z,6504
2017-03-29T06:43:48.073Z,6428
2017-03-29T06:44:28.543Z,6404
2017-03-29T06:45:08.945Z,6340
2017-03-29T06:45:49.343Z,6440
2017-03-29T06:46:29.731Z,6488
2017-03-29T06:47:10.228Z,6472
2017-03-29T06:47:50.696Z,6344
2017-03-29T06:48:31.131Z,6328
2017-03-29T06:49:11.526Z,6452
2017-03-29T06:49:51.903Z,6472
2017-03-29T06:50:32.328Z,6588
2017-03-29T06:51:12.774Z,6808
2017-03-29T06:51:53.177Z,6876
2017-03-29T06:52:33.560Z,6920
2017-03-29T06:53:14.038Z,6932
2017-03-29T06:53:54.426Z,6800
2017-03-29T06:54:34.933Z,6824
2017-03-29T06:55:15.376Z,6940
2017-03-29T06:55:55.759Z,7144
2017-03-29T06:56:36.133Z,7420
2017-03-29T06:57:16.514Z,7600
2017-03-29T06:57:56.937Z,7708
2017-03-29T06:58:37.321Z,7772
2017-03-29T06:59:17.789Z,7860
2017-03-29T06:59:58.135Z,7864
2017-03-29T07:00:38.822Z,7784
2017-03-29T07:01:19.536Z,7840
2017-03-29T07:02:00.128Z,7948
2017-03-29T07:02:40.724Z,8048
2017-03-29T07:03:22.029Z,8176
2017-03-29T07:04:02.430Z,8272
2017-03-29T07:04:42.780Z,8324
2017-03-29T07:05:23.756Z,8332
2017-03-29T07:06:04.199Z,8384
2017-03-29T07:06:44.714Z,8420
2017-03-29T07:07:25.085Z,8524
2017-03-29T07:08:05.523Z,8500
2017-03-29T07:08:45.886Z,8440
2017-03-29T07:09:26.364Z,8504
2017-03-29T07:10:06.755Z,8472
2017-03-29T07:10:47.128Z,8456
2017-03-29T07:11:27.574Z,8416
2017-03-29T07:12:07.999Z,8260
2017-03-29T07:12:48.372Z,8132
2017-03-29T07:13:28.815Z,8072
2017-03-29T07:14:09.226Z,8240
2017-03-29T07:14:49.613Z,8348
2017-03-29T07:15:30.006Z,8484
2017-03-29T07:16:10.436Z,8608
2017-03-29T07:16:50.853Z,8452
2017-03-29T07:17:31.270Z,8128
2017-03-29T07:18:11.731Z,8200
2017-03-29T07:18:52.124Z,8392
2017-03-29T07:19:33.338Z,8576
2017-03-29T07:20:13.769Z,8884
2017-03-29T07:20:54.200Z,9036
2017-03-29T07:21:34.738Z,9152
2017-03-29T07:22:15.086Z,9212
2017-03-29T07:22:55.507Z,9408
2017-03-29T07:23:37.702Z,9580
2017-03-29T07:24:18.096Z,9688
2017-03-29T07:24:58.502Z,9752
2017-03-29T07:25:38.910Z,9720
2017-03-29T07:26:19.310Z,9728
2017-03-29T07:27:00.396Z,9912
2017-03-29T07:27:41.875Z,10044
2017-03-29T07:28:22.261Z,10152
2017-03-29T07:29:02.716Z,10232
2017-03-29T07:29:43.100Z,10228
2017-03-29T07:30:23.516Z,10296
2017-03-29T07:31:03.892Z,10260
2017-03-29T07:31:44.331Z,10260
2017-03-29T07:32:24.741Z,10272
2017-03-29T07:33:05.178Z,10236
2017-03-29T07:33:45.570Z,10196
2017-03-29T07:34:26.021Z,9776
2017-03-29T07:35:06.434Z,9236
2017-03-29T07:35:47.573Z,9536
2017-03-29T07:36:28.040Z,10060
2017-03-29T07:37:08.418Z,10240
2017-03-29T07:37:48.897Z,10400
2017-03-29T07:38:30.252Z,10712
2017-03-29T07:39:10.658Z,10912
2017-03-29T07:39:51.090Z,11052
2017-03-29T07:40:31.559Z,11192
2017-03-29T07:41:11.945Z,11196
2017-03-29T07:41:52.364Z,11268
2017-03-29T07:42:32.806Z,11392
2017-03-29T07:43:13.200Z,11476
2017-03-29T07:43:54.271Z,11624
2017-03-29T07:44:34.685Z,11716
2017-03-29T07:45:15.108Z,11888
2017-03-29T07:45:55.515Z,11980
2017-03-29T07:46:35.948Z,12012
2017-03-29T07:47:16.375Z,12096
2017-03-29T07:47:56.769Z,12176
2017-03-29T07:48:37.236Z,12336
2017-03-29T07:49:19.340Z,12484
2017-03-29T07:49:59.819Z,12580
2017-03-29T07:50:40.811Z,12680
2017-03-29T07:51:21.260Z,12800
2017-03-29T07:52:01.657Z,12912
2017-03-29T07:52:42.062Z,12704
2017-03-29T07:53:22.540Z,12500
2017-03-29T07:54:02.937Z,12808
2017-03-29T07:54:43.376Z,13320
2017-03-29T07:55:23.809Z,13844
2017-03-29T07:56:04.171Z,14232
2017-03-29T07:56:44.611Z,14892
2017-03-29T07:57:25.031Z,15856
2017-03-29T07:58:05.475Z,16036
2017-03-29T07:58:45.919Z,16452
2017-03-29T07:59:26.880Z,17664
2017-03-29T08:00:07.831Z,17920
2017-03-29T08:00:48.320Z,25600
2017-03-29T08:01:29.201Z,39552
2017-03-29T08:02:09.584Z,49280
2017-03-29T08:02:50.065Z,57184
2017-03-29T08:05:24.349Z,58624
2017-03-29T08:06:06.070Z,58432
2017-03-29T08:06:46.422Z,57664
2017-03-29T08:07:26.861Z,58528
2017-03-29T08:08:07.980Z,59680
2017-03-29T08:08:48.381Z,57632
2017-03-29T08:09:28.762Z,56000
2017-03-29T08:10:09.211Z,58144
2017-03-29T08:10:49.625Z,59552
2017-03-29T08:11:30.063Z,62208
2017-03-29T08:12:10.540Z,57792
2017-03-29T08:12:50.951Z,58720
2017-03-29T08:13:31.329Z,61056
2017-03-29T08:14:11.876Z,61152
2017-03-29T08:14:52.269Z,63936
2017-03-29T08:15:32.726Z,69408
2017-03-29T08:16:13.122Z,65728
2017-03-29T08:16:53.500Z,70944
2017-03-29T08:17:33.967Z,72160
2017-03-29T08:18:15.197Z,71744
2017-03-29T08:18:55.642Z,75648
2017-03-29T08:19:36.081Z,76928
2017-03-29T08:20:16.481Z,75264
2017-03-29T08:20:56.847Z,75296
2017-03-29T08:21:37.290Z,74304
2017-03-29T08:22:17.724Z,73248
2017-03-29T08:22:58.103Z,75296
2017-03-29T08:23:38.513Z,76672
2017-03-29T08:24:18.915Z,73056
2017-03-29T08:24:59.370Z,70112
2017-03-29T08:25:39.759Z,71520
2017-03-29T08:26:20.208Z,69120
2017-03-29T08:27:01.370Z,67008
2017-03-29T08:27:41.788Z,67232
2017-03-29T08:28:23.057Z,64288
2017-03-29T08:29:03.481Z,63264
2017-03-29T08:29:43.927Z,65152
2017-03-29T08:30:24.426Z,68832
2017-03-29T08:31:04.812Z,67392
2017-03-29T08:31:45.271Z,65984
2017-03-29T08:32:25.689Z,67968
2017-03-29T08:33:06.119Z,65984
2017-03-29T08:33:46.550Z,66272
2017-03-29T08:34:26.962Z,63488
2017-03-29T08:35:07.387Z,65120
2017-03-29T08:35:47.842Z,65600
2017-03-29T08:36:28.213Z,68352
2017-03-29T08:37:08.681Z,75744
2017-03-29T08:37:50.041Z,78336
2017-03-29T08:38:30.464Z,76544
2017-03-29T08:39:10.876Z,79008
2017-03-29T08:39:51.287Z,79616
2017-03-29T08:40:31.682Z,80256
2017-03-29T08:41:12.143Z,72608
2017-03-29T08:41:52.574Z,72800
2017-03-29T08:42:32.976Z,68800
2017-03-29T08:43:13.389Z,73760
2017-03-29T08:43:53.814Z,70176
2017-03-29T08:44:35.134Z,77952
2017-03-29T08:45:16.264Z,69504
2017-03-29T08:45:56.706Z,72256
2017-03-29T08:46:37.130Z,77152
2017-03-29T08:47:17.594Z,78144
2017-03-29T08:47:58.024Z,77472
2017-03-29T08:48:38.463Z,75424
2017-03-29T08:49:18.877Z,78464
2017-03-29T08:49:59.302Z,77792
2017-03-29T08:50:39.672Z,77376
2017-03-29T08:51:20.737Z,73568
2017-03-29T08:52:01.257Z,76640
2017-03-29T08:52:41.689Z,39712
2017-03-29T08:53:22.640Z,76960
2017-03-29T08:54:03.048Z,75488
2017-03-29T08:54:44.154Z,79968
2017-03-29T08:55:24.558Z,85920
2017-03-29T08:56:04.989Z,55648
2017-03-29T08:56:45.391Z,48160
2017-03-29T08:57:25.828Z,81440
2017-03-29T08:58:06.248Z,81280
2017-03-29T08:58:46.693Z,78496
2017-03-29T08:59:27.128Z,80576
2017-03-29T09:00:07.581Z,83968
2017-03-29T09:00:48.065Z,87008
2017-03-29T09:01:28.470Z,86112
2017-03-29T09:02:08.894Z,77472
2017-03-29T09:02:49.314Z,76800
2017-03-29T09:03:29.710Z,77024
2017-03-29T09:04:10.148Z,82720
2017-03-29T09:04:50.648Z,86016
2017-03-29T09:05:31.064Z,50240
2017-03-29T09:06:11.489Z,48128
2017-03-29T09:06:51.953Z,44576
2017-03-29T09:07:32.318Z,48896
2017-03-29T09:08:14.558Z,68064
2017-03-29T09:08:55.004Z,79776
2017-03-29T09:11:24.503Z,25760
2017-03-29T09:12:04.687Z,23968
2017-03-29T09:12:45.140Z,25056
2017-03-29T09:13:25.558Z,23040
2017-03-29T09:14:06.003Z,24352
2017-03-29T09:14:46.439Z,21824
2017-03-29T09:15:26.852Z,19424
2017-03-29T09:16:07.258Z,20032
2017-03-29T09:16:47.662Z,21760
2017-03-29T09:17:28.103Z,21184
2017-03-29T09:19:43.917Z,24768
2017-03-29T09:20:24.539Z,26336
2017-03-29T09:21:04.926Z,25408
2017-03-29T09:21:45.414Z,23008
2017-03-29T09:22:25.787Z,21248
2017-03-29T09:23:06.196Z,27808
2017-03-29T09:23:46.644Z,22240
2017-03-29T09:24:27.069Z,21184
2017-03-29T09:25:07.463Z,19200
2017-03-29T09:25:47.890Z,18976
2017-03-29T09:26:28.390Z,20864
2017-03-29T09:27:08.862Z,23520
2017-03-29T09:27:49.353Z,39552
2017-03-29T09:28:29.705Z,27904
2017-03-29T09:29:10.112Z,29984
2017-03-29T09:29:50.546Z,25952
2017-03-29T09:30:30.965Z,24576
2017-03-29T09:31:11.543Z,27488
2017-03-29T09:31:51.793Z,44544
2017-03-29T09:32:32.223Z,67456
2017-03-29T09:33:12.658Z,65856
2017-03-29T09:33:53.036Z,22464
2017-03-29T09:34:33.424Z,21600
2017-03-29T09:35:13.861Z,21600
2017-03-29T09:35:54.274Z,23296
2017-03-29T09:36:34.705Z,53184
2017-03-29T09:37:15.119Z,93440
2017-03-29T09:37:55.545Z,20896
2017-03-29T09:38:35.970Z,21632
2017-03-29T09:39:16.375Z,84864
2017-03-29T09:39:56.859Z,31104
2017-03-29T09:40:37.204Z,82656
2017-03-29T09:41:17.618Z,91104